Time;durP1;ratioP1;P1;durP2;ratioP2;P2;SDS_P1;SDS_P2;PMS_P1;PMS_P2;Temp;Humidity;BMP_temperature;BMP_pressure;BME280_temperature;BME280_humidity;BME280_pressure;Samples;Min_cycle;Max_cycle;Signal;HPM_P1;HPM_P2
2023/10/07 00:01:10;;;;;;;5.15;2.30;;;;;;;;;;4977931;28;20480;-67
2023/10/07 00:03:38;;;;;;;6.22;2.35;;;;;;;;;;4977645;28;20049;-69
2023/10/07 00:06:10;;;;;;;6.13;2.90;;;;;;;;;;4977741;28;20118;-67
2023/10/07 00:08:35;;;;;;;9.13;3.20;;;;;;;;;;4977697;28;20034;-68
2023/10/07 00:11:01;;;;;;;7.57;2.55;;;;;;;;;;4977506;28;20081;-65
2023/10/07 00:13:30;;;;;;;6.88;2.47;;;;;;;;;;4977606;28;20023;-67
2023/10/07 00:15:56;;;;;;;4.00;1.92;;;;;;;;;;4977482;28;20035;-67
2023/10/07 00:18:24;;;;;;;6.53;2.25;;;;;;;;;;4977494;28;20171;-69
2023/10/07 00:20:54;;;;;;;5.93;2.58;;;;;;;;;;4977655;28;20062;-68
2023/10/07 00:23:26;;;;;;;6.68;2.22;;;;;;;;;;4977466;28;20026;-69
2023/10/07 00:25:53;;;;;;;10.07;2.30;;;;;;;;;;4977090;28;20174;-69
2023/10/07 00:28:44;;;;;;;6.05;2.30;;;;;;;;;;4977388;28;20031;-68
2023/10/07 00:31:22;;;;;;;5.50;2.33;;;;;;;;;;4976850;28;20089;-67
2023/10/07 00:37:02;;;;;;;5.95;2.22;;;;;;;;;;4977164;28;20378;-63
2023/10/07 00:39:09;;;;;;;7.20;2.60;;;;;;;;;;4969078;28;20042;-64
2023/10/07 00:41:58;;;;;;;5.15;2.40;;;;;;;;;;4976911;28;20384;-64
2023/10/07 00:44:35;;;;;;;6.70;2.40;;;;;;;;;;4978933;28;20043;-65
2023/10/07 00:49:39;;;;;;;8.55;2.30;;;;;;;;;;4996502;28;20391;-67
2023/10/07 00:52:11;;;;;;;7.63;2.53;;;;;;;;;;4993169;28;20027;-64
2023/10/07 00:57:23;;;;;;;5.15;2.20;;;;;;;;;;4976879;28;20031;-66
2023/10/07 00:59:51;;;;;;;3.75;2.05;;;;;;;;;;4976724;28;20082;-65
2023/10/07 01:02:39;;;;;;;4.85;2.30;;;;;;;;;;4976553;28;20101;-65
2023/10/07 01:05:09;;;;;;;5.80;2.63;;;;;;;;;;4976033;28;20043;-64
2023/10/07 01:07:34;;;;;;;4.95;2.30;;;;;;;;;;4976419;28;20045;-64
2023/10/07 01:10:13;;;;;;;5.82;2.72;;;;;;;;;;4976754;28;20384;-64
2023/10/07 01:12:39;;;;;;;5.32;2.35;;;;;;;;;;4976792;28;20045;-64
2023/10/07 01:15:12;;;;;;;5.07;2.28;;;;;;;;;;4976474;28;20090;-66
2023/10/07 01:17:40;;;;;;;8.98;2.50;;;;;;;;;;4976282;28;20116;-65
2023/10/07 01:20:08;;;;;;;7.63;2.58;;;;;;;;;;4976467;28;20464;-64
2023/10/07 01:22:36;;;;;;;4.93;2.40;;;;;;;;;;4976419;28;20031;-65
2023/10/07 01:25:09;;;;;;;4.95;2.15;;;;;;;;;;4975957;28;20469;-65
2023/10/07 01:27:53;;;;;;;4.25;2.05;;;;;;;;;;4976307;28;20105;-65
2023/10/07 01:30:26;;;;;;;5.40;2.70;;;;;;;;;;4976390;28;20035;-64
2023/10/07 01:33:02;;;;;;;7.15;2.33;;;;;;;;;;4976299;28;20472;-65
2023/10/07 01:35:32;;;;;;;7.18;2.70;;;;;;;;;;4976187;28;20125;-66
2023/10/07 01:38:07;;;;;;;7.03;2.25;;;;;;;;;;4975827;28;20503;-63
2023/10/07 01:41:15;;;;;;;4.72;2.17;;;;;;;;;;4976083;28;20031;-65
2023/10/07 01:43:29;;;;;;;6.57;2.63;;;;;;;;;;4973897;28;20042;-63
2023/10/07 01:45:54;;;;;;;4.53;2.30;;;;;;;;;;4989686;28;20448;-63
2023/10/07 01:48:20;;;;;;;6.30;2.65;;;;;;;;;;4995316;28;20022;-67
2023/10/07 01:50:46;;;;;;;4.85;1.90;;;;;;;;;;4995030;28;20045;-63
2023/10/07 01:53:13;;;;;;;7.10;2.67;;;;;;;;;;4982970;28;20031;-62
2023/10/07 01:55:42;;;;;;;4.30;2.30;;;;;;;;;;4975456;28;20030;-65
2023/10/07 01:58:16;;;;;;;8.07;2.28;;;;;;;;;;4975616;28;20030;-66
2023/10/07 02:00:44;;;;;;;5.38;2.50;;;;;;;;;;4975694;28;20031;-69
2023/10/07 02:03:16;;;;;;;5.38;2.40;;;;;;;;;;4975379;28;20066;-63
2023/10/07 02:05:52;;;;;;;5.90;2.40;;;;;;;;;;4975301;28;20089;-65
2023/10/07 02:08:20;;;;;;;5.35;2.50;;;;;;;;;;4975628;28;20027;-64
2023/10/07 02:10:47;;;;;;;6.15;2.78;;;;;;;;;;4975327;28;20480;-63
2023/10/07 02:13:21;;;;;;;6.43;2.97;;;;;;;;;;4975597;28;20046;-65
2023/10/07 02:15:47;;;;;;;4.97;2.35;;;;;;;;;;4974495;28;20031;-63
2023/10/07 02:18:16;;;;;;;7.53;2.92;;;;;;;;;;4975393;28;20027;-64
2023/10/07 02:21:07;;;;;;;6.18;2.85;;;;;;;;;;4975228;28;20034;-63
2023/10/07 02:23:40;;;;;;;6.38;2.58;;;;;;;;;;4974786;28;20039;-66
2023/10/07 02:26:16;;;;;;;7.93;2.53;;;;;;;;;;4975046;28;20376;-63
2023/10/07 02:28:52;;;;;;;4.18;2.30;;;;;;;;;;4975104;28;20483;-63
2023/10/07 02:31:24;;;;;;;5.18;2.30;;;;;;;;;;4975197;28;20114;-63
2023/10/07 02:33:57;;;;;;;8.57;2.95;;;;;;;;;;4974941;28;20104;-64
2023/10/07 02:41:46;;;;;;;6.68;2.28;;;;;;;;;;4974858;28;20420;-63
2023/10/07 02:44:16;;;;;;;5.82;2.60;;;;;;;;;;4974877;28;20408;-65
2023/10/07 02:46:42;;;;;;;7.05;2.80;;;;;;;;;;4994310;28;20089;-63
2023/10/07 02:49:10;;;;;;;7.22;2.47;;;;;;;;;;4993836;28;20123;-64
2023/10/07 02:51:40;;;;;;;4.97;2.42;;;;;;;;;;4994144;28;20026;-65
2023/10/07 02:54:17;;;;;;;6.30;2.30;;;;;;;;;;4975032;28;20031;-64
2023/10/07 02:56:53;;;;;;;5.25;2.50;;;;;;;;;;4974502;28;20041;-63
2023/10/07 02:59:24;;;;;;;5.93;2.63;;;;;;;;;;4974725;28;20031;-63
2023/10/07 03:04:36;;;;;;;6.78;2.50;;;;;;;;;;4974471;28;20546;-63
2023/10/07 03:07:13;;;;;;;7.10;2.40;;;;;;;;;;4974317;28;20086;-63
2023/10/07 03:09:42;;;;;;;7.95;2.30;;;;;;;;;;4974361;28;20146;-63
2023/10/07 03:12:12;;;;;;;6.10;2.17;;;;;;;;;;4974388;28;20033;-65
2023/10/07 03:14:39;;;;;;;4.20;2.55;;;;;;;;;;4974505;28;20050;-63
2023/10/07 03:17:17;;;;;;;3.85;1.92;;;;;;;;;;4974147;28;20490;-63
2023/10/07 03:22:42;;;;;;;4.53;2.22;;;;;;;;;;4933722;29;20117;-64
2023/10/07 03:25:08;;;;;;;3.80;1.73;;;;;;;;;;4933115;29;20035;-63
2023/10/07 03:27:39;;;;;;;4.55;2.03;;;;;;;;;;4933185;29;20071;-65
2023/10/07 03:30:15;;;;;;;5.00;1.63;;;;;;;;;;4933680;29;20031;-67
2023/10/07 03:32:57;;;;;;;3.15;1.70;;;;;;;;;;4933446;29;20027;-63
2023/10/07 03:35:35;;;;;;;4.95;1.85;;;;;;;;;;4933368;29;20401;-64
2023/10/07 03:38:10;;;;;;;3.63;1.70;;;;;;;;;;4933760;29;20027;-64
2023/10/07 03:40:38;;;;;;;6.13;1.80;;;;;;;;;;4926763;29;20423;-67
2023/10/07 03:43:06;;;;;;;4.00;1.73;;;;;;;;;;4914570;29;20036;-67
2023/10/07 03:45:32;;;;;;;3.03;1.70;;;;;;;;;;4935368;29;20027;-67
2023/10/07 03:47:57;;;;;;;3.45;1.50;;;;;;;;;;4952525;29;20031;-67
2023/10/07 03:50:34;;;;;;;4.38;1.73;;;;;;;;;;4952787;29;20127;-67
2023/10/07 03:53:03;;;;;;;4.35;1.90;;;;;;;;;;4942118;29;20047;-67
2023/10/07 03:55:29;;;;;;;5.55;1.95;;;;;;;;;;4933214;29;20035;-67
2023/10/07 03:57:55;;;;;;;3.55;1.80;;;;;;;;;;4933381;29;20083;-63
2023/10/07 04:00:27;;;;;;;3.80;1.77;;;;;;;;;;4951095;29;20039;-68
2023/10/07 04:02:52;;;;;;;7.68;1.70;;;;;;;;;;4957842;28;20030;-68
2023/10/07 04:05:31;;;;;;;4.72;2.00;;;;;;;;;;4973760;28;20448;-67
2023/10/07 04:07:57;;;;;;;4.10;1.52;;;;;;;;;;4974035;28;20031;-68
2023/10/07 04:10:31;;;;;;;7.03;1.92;;;;;;;;;;4973807;28;20029;-68
2023/10/07 04:12:57;;;;;;;4.57;1.98;;;;;;;;;;4973664;28;20038;-67
2023/10/07 04:15:29;;;;;;;3.17;1.70;;;;;;;;;;4973416;28;20120;-67
2023/10/07 04:17:55;;;;;;;2.85;1.88;;;;;;;;;;4972483;28;20027;-68
2023/10/07 04:20:24;;;;;;;3.92;2.25;;;;;;;;;;4973808;28;20487;-67
2023/10/07 04:23:00;;;;;;;5.72;2.05;;;;;;;;;;4973626;28;20041;-65
2023/10/07 04:25:27;;;;;;;6.03;2.15;;;;;;;;;;4973253;28;20078;-67
2023/10/07 04:27:57;;;;;;;5.20;2.00;;;;;;;;;;4973374;28;20396;-68
2023/10/07 04:30:38;;;;;;;;;;;;;;;;;;4973753;28;20019;-67
2023/10/07 04:33:08;;;;;;;3.08;2.05;;;;;;;;;;4973544;28;19956;-67
2023/10/07 04:35:33;;;;;;;4.17;2.30;;;;;;;;;;4973323;28;20066;-68
2023/10/07 04:46:23;;;;;;;5.72;2.97;;;;;;;;;;4914555;29;20141;-68
2023/10/07 04:48:55;;;;;;;5.05;3.17;;;;;;;;;;4917217;29;20036;-67
2023/10/07 04:53:58;;;;;;;4.25;1.40;;;;;;;;;;4916017;29;20028;-68
2023/10/07 04:56:25;;;;;;;1.60;1.08;;;;;;;;;;4917437;29;20036;-67
2023/10/07 04:58:54;;;;;;;1.38;0.70;;;;;;;;;;4917238;29;20039;-65
2023/10/07 05:01:32;;;;;;;1.02;0.50;;;;;;;;;;4917327;29;20032;-68
2023/10/07 05:04:05;;;;;;;0.73;0.47;;;;;;;;;;4905121;29;20489;-67
2023/10/07 05:06:34;;;;;;;0.43;0.43;;;;;;;;;;4898330;29;20048;-67
2023/10/07 05:09:03;;;;;;;2.53;0.70;;;;;;;;;;4898377;29;20066;-68
2023/10/07 05:11:29;;;;;;;1.40;0.50;;;;;;;;;;4893846;29;20043;-67
2023/10/07 05:13:55;;;;;;;1.45;0.82;;;;;;;;;;4888542;29;20045;-66
2023/10/07 05:16:22;;;;;;;1.40;0.80;;;;;;;;;;4887402;29;20134;-67
2023/10/07 05:18:48;;;;;;;1.05;0.50;;;;;;;;;;4888865;29;20029;-68
2023/10/07 05:21:16;;;;;;;0.90;0.57;;;;;;;;;;4916908;29;20032;-63
2023/10/07 05:23:41;;;;;;;0.90;0.60;;;;;;;;;;4951664;28;20057;-67
2023/10/07 05:26:09;;;;;;;2.17;0.80;;;;;;;;;;4965513;28;20555;-67
2023/10/07 05:28:35;;;;;;;1.48;0.70;;;;;;;;;;4965813;28;20447;-64
2023/10/07 05:31:05;;;;;;;1.00;0.60;;;;;;;;;;4966984;28;20469;-66
2023/10/07 05:33:34;;;;;;;3.15;0.77;;;;;;;;;;4965538;28;20042;-66
2023/10/07 05:36:14;;;;;;;2.15;0.85;;;;;;;;;;4965092;28;20133;-68
2023/10/07 05:38:47;;;;;;;2.05;0.63;;;;;;;;;;4956669;28;20058;-68
2023/10/07 05:41:14;;;;;;;1.25;0.65;;;;;;;;;;4968207;28;20019;-67
2023/10/07 05:43:48;;;;;;;1.60;0.60;;;;;;;;;;4975939;28;20030;-65
2023/10/07 05:46:17;;;;;;;2.40;1.08;;;;;;;;;;4975892;28;20038;-65
2023/10/07 05:48:43;;;;;;;2.38;0.75;;;;;;;;;;4976059;28;20055;-67
2023/10/07 05:51:09;;;;;;;1.30;0.63;;;;;;;;;;4976001;28;20480;-67
2023/10/07 05:53:43;;;;;;;3.72;0.75;;;;;;;;;;4990853;28;20030;-66
2023/10/07 05:56:09;;;;;;;1.58;0.73;;;;;;;;;;4995114;28;20026;-68
2023/10/07 05:58:38;;;;;;;1.35;0.68;;;;;;;;;;4993768;28;20463;-63
2023/10/07 06:01:05;;;;;;;1.40;0.50;;;;;;;;;;4995178;28;20026;-63
2023/10/07 06:03:30;;;;;;;1.13;0.52;;;;;;;;;;4993903;28;20507;-63
2023/10/07 06:05:57;;;;;;;1.92;0.60;;;;;;;;;;4975722;28;20050;-63
2023/10/07 06:08:26;;;;;;;1.38;0.68;;;;;;;;;;4975686;28;20030;-63
2023/10/07 06:10:53;;;;;;;2.88;0.63;;;;;;;;;;4972728;28;20034;-63
2023/10/07 06:13:18;;;;;;;1.35;0.65;;;;;;;;;;4958468;28;20030;-63
2023/10/07 06:15:45;;;;;;;2.60;0.80;;;;;;;;;;4955957;28;20031;-63
2023/10/07 06:18:11;;;;;;;2.42;0.68;;;;;;;;;;4959876;28;20421;-63
2023/10/07 06:20:46;;;;;;;2.42;0.90;;;;;;;;;;4964526;28;20023;-63
2023/10/07 06:23:16;;;;;;;3.05;0.85;;;;;;;;;;4966222;28;20110;-63
2023/10/07 06:25:48;;;;;;;2.65;0.70;;;;;;;;;;4966074;28;20098;-63
2023/10/07 06:28:29;;;;;;;3.13;0.77;;;;;;;;;;4963321;28;20103;-62
2023/10/07 06:31:13;;;;;;;0.95;0.60;;;;;;;;;;4966014;28;20046;-63
2023/10/07 06:33:42;;;;;;;2.20;0.70;;;;;;;;;;4965985;28;20031;-65
2023/10/07 06:36:10;;;;;;;3.45;0.80;;;;;;;;;;4965785;28;20031;-64
2023/10/07 06:38:38;;;;;;;2.67;0.77;;;;;;;;;;4965262;28;20027;-64
2023/10/07 06:41:10;;;;;;;4.97;0.98;;;;;;;;;;4963774;28;20026;-64
2023/10/07 06:43:43;;;;;;;2.42;0.70;;;;;;;;;;4965227;28;20023;-64
2023/10/07 06:46:12;;;;;;;6.10;0.88;;;;;;;;;;4965621;28;20023;-64
2023/10/07 06:48:40;;;;;;;5.03;1.17;;;;;;;;;;4965218;28;20027;-63
2023/10/07 06:51:10;;;;;;;3.90;1.00;;;;;;;;;;4965292;28;20451;-64
2023/10/07 06:53:38;;;;;;;5.30;0.90;;;;;;;;;;4971058;28;20033;-63
2023/10/07 06:56:04;;;;;;;4.68;1.17;;;;;;;;;;4964237;28;20032;-65
2023/10/07 06:58:30;;;;;;;6.55;1.10;;;;;;;;;;4963730;28;20026;-63
2023/10/07 07:01:10;;;;;;;5.88;1.35;;;;;;;;;;4964918;28;20023;-63
2023/10/07 07:03:35;;;;;;;;;;;;;;;;;;4966216;28;20019;-69
2023/10/07 07:06:03;;;;;;;5.35;1.17;;;;;;;;;;4964826;28;19910;-68
2023/10/07 07:08:34;;;;;;;4.45;0.98;;;;;;;;;;4965008;28;20023;-67
2023/10/07 07:11:02;;;;;;;4.80;1.05;;;;;;;;;;4964951;28;20031;-69
2023/10/07 07:13:28;;;;;;;4.50;1.10;;;;;;;;;;4963600;28;20082;-67
2023/10/07 07:16:06;;;;;;;4.95;1.20;;;;;;;;;;4962765;28;20366;-67
2023/10/07 07:18:33;;;;;;;5.78;1.00;;;;;;;;;;4963105;28;20382;-67
2023/10/07 07:21:01;;;;;;;6.30;1.10;;;;;;;;;;4963593;28;20495;-68
2023/10/07 07:23:35;;;;;;;5.25;0.93;;;;;;;;;;4964283;28;20412;-65
2023/10/07 07:28:31;;;;;;;4.93;1.10;;;;;;;;;;4963037;28;20105;-66
2023/10/07 07:31:00;;;;;;;6.05;1.20;;;;;;;;;;4963402;28;20023;-66
2023/10/07 07:33:31;;;;;;;4.38;1.25;;;;;;;;;;4971715;28;20081;-68
2023/10/07 07:35:57;;;;;;;5.45;1.50;;;;;;;;;;4973885;28;20030;-64
2023/10/07 07:41:10;;;;;;;5.75;1.23;;;;;;;;;;4963280;28;20492;-64
2023/10/07 07:43:37;;;;;;;7.93;1.40;;;;;;;;;;4954432;28;20027;-62
2023/10/07 07:46:26;;;;;;;10.07;2.10;;;;;;;;;;4970700;28;20034;-68
2023/10/07 07:48:55;;;;;;;9.35;1.80;;;;;;;;;;4992001;28;20088;-67
2023/10/07 07:51:24;;;;;;;7.68;1.80;;;;;;;;;;4979935;28;20110;-68
2023/10/07 07:53:51;;;;;;;8.93;1.40;;;;;;;;;;4973450;28;20504;-65
2023/10/07 07:56:18;;;;;;;4.60;1.30;;;;;;;;;;4973893;28;20154;-66
2023/10/07 07:58:47;;;;;;;12.85;2.05;;;;;;;;;;4973842;28;20033;-66
2023/10/07 08:01:18;;;;;;;9.43;1.50;;;;;;;;;;4973903;28;20031;-65
2023/10/07 08:03:43;;;;;;;8.73;1.70;;;;;;;;;;4985424;28;20031;-66
2023/10/07 08:06:12;;;;;;;9.63;1.52;;;;;;;;;;4973850;28;20476;-66
2023/10/07 08:08:38;;;;;;;8.18;2.08;;;;;;;;;;4973538;28;20034;-66
2023/10/07 08:11:05;;;;;;;13.43;2.97;;;;;;;;;;4973577;28;20027;-65
2023/10/07 08:13:31;;;;;;;12.45;2.90;;;;;;;;;;4975207;28;20041;-64
2023/10/07 08:16:05;;;;;;;14.25;2.20;;;;;;;;;;4977326;28;20034;-68
2023/10/07 08:18:31;;;;;;;15.23;2.67;;;;;;;;;;4977381;28;20032;-65
2023/10/07 08:21:06;;;;;;;11.13;2.15;;;;;;;;;;4977381;28;20018;-67
2023/10/07 08:23:35;;;;;;;12.00;1.63;;;;;;;;;;4976960;28;20503;-65
2023/10/07 08:26:10;;;;;;;17.63;2.20;;;;;;;;;;4966058;28;20665;-65
2023/10/07 08:28:47;;;;;;;9.90;1.70;;;;;;;;;;4957892;28;20465;-65
2023/10/07 08:31:19;;;;;;;9.43;1.58;;;;;;;;;;4957824;28;20032;-64
2023/10/07 08:34:33;;;;;;;11.10;2.10;;;;;;;;;;4957725;28;20032;-63
2023/10/07 08:36:47;;;;;;;9.13;1.70;;;;;;;;;;4954313;28;20404;-63
2023/10/07 08:39:17;;;;;;;11.73;2.03;;;;;;;;;;4970061;28;20037;-64
2023/10/07 08:41:47;;;;;;;10.73;1.83;;;;;;;;;;4980665;28;20031;-62
2023/10/07 08:44:13;;;;;;;9.35;1.73;;;;;;;;;;4976986;28;20031;-62
2023/10/07 08:46:48;;;;;;;10.65;1.73;;;;;;;;;;4976783;28;20026;-63
2023/10/07 08:49:16;;;;;;;11.00;2.03;;;;;;;;;;4976815;28;20035;-66
2023/10/07 08:51:43;;;;;;;11.02;1.92;;;;;;;;;;4976649;28;20034;-64
2023/10/07 08:54:20;;;;;;;10.52;1.70;;;;;;;;;;4976852;28;20034;-66
2023/10/07 08:56:57;;;;;;;9.50;1.65;;;;;;;;;;4982903;28;20033;-63
2023/10/07 08:59:30;;;;;;;10.38;2.13;;;;;;;;;;4996178;28;20097;-64
2023/10/07 09:02:00;;;;;;;11.88;1.98;;;;;;;;;;4995927;28;20030;-62
2023/10/07 09:04:31;;;;;;;12.38;2.10;;;;;;;;;;4995772;28;20031;-64
2023/10/07 09:06:58;;;;;;;10.70;2.00;;;;;;;;;;4994211;28;20506;-63
2023/10/07 09:09:38;;;;;;;14.13;2.20;;;;;;;;;;4975805;28;20039;-65
2023/10/07 09:12:18;;;;;;;10.30;1.77;;;;;;;;;;4976245;28;20077;-64
2023/10/07 09:14:55;;;;;;;9.63;2.03;;;;;;;;;;4976603;28;20027;-63
2023/10/07 09:17:23;;;;;;;8.93;1.60;;;;;;;;;;4976342;28;20085;-66
2023/10/07 09:19:52;;;;;;;8.50;1.52;;;;;;;;;;4975982;28;20030;-64
2023/10/07 09:22:24;;;;;;;10.02;1.98;;;;;;;;;;4995664;28;20527;-65
2023/10/07 09:25:09;;;;;;;8.80;1.67;;;;;;;;;;4993447;28;20046;-65
2023/10/07 09:27:37;;;;;;;10.68;1.80;;;;;;;;;;4976120;28;20106;-63
2023/10/07 09:32:55;;;;;;;13.98;1.90;;;;;;;;;;4976401;28;20093;-63
2023/10/07 09:35:22;;;;;;;9.23;1.48;;;;;;;;;;4975855;28;20114;-64
2023/10/07 09:37:53;;;;;;;9.80;2.05;;;;;;;;;;4976003;28;20036;-64
2023/10/07 09:43:13;;;;;;;12.35;2.25;;;;;;;;;;4976154;28;20081;-62
2023/10/07 09:45:38;;;;;;;13.95;2.10;;;;;;;;;;4975888;28;20073;-64
2023/10/07 09:48:05;;;;;;;11.40;2.13;;;;;;;;;;4975622;28;20031;-64
2023/10/07 09:50:33;;;;;;;12.98;1.88;;;;;;;;;;4975655;28;20480;-64
2023/10/07 09:53:14;;;;;;;13.90;2.17;;;;;;;;;;4975791;28;20042;-63
2023/10/07 09:55:56;;;;;;;10.63;1.70;;;;;;;;;;4975694;28;20388;-64
2023/10/07 09:58:41;;;;;;;7.10;1.27;;;;;;;;;;4975666;28;20051;-64
2023/10/07 10:01:36;;;;;;;12.02;1.95;;;;;;;;;;4975646;28;20034;-65
2023/10/07 10:04:14;;;;;;;12.15;2.17;;;;;;;;;;4975144;28;20042;-64
2023/10/07 10:07:14;;;;;;;9.27;1.55;;;;;;;;;;4975709;28;20386;-64
2023/10/07 10:10:05;;;;;;;13.98;2.10;;;;;;;;;;4975539;28;20081;-63
2023/10/07 10:13:16;;;;;;;;;;;;;;;;;;4975664;28;20117;-63
2023/10/07 10:18:35;;;;;;;8.65;1.85;;;;;;;;;;4975040;28;20488;-65
2023/10/07 10:21:09;;;;;;;7.13;1.50;;;;;;;;;;4975396;28;20377;-65
2023/10/07 10:23:37;;;;;;;9.48;1.70;;;;;;;;;;4973757;28;20031;-67
2023/10/07 10:26:22;;;;;;;13.10;2.05;;;;;;;;;;4963921;28;20070;-67
2023/10/07 10:29:04;;;;;;;9.30;1.70;;;;;;;;;;4955912;28;20432;-67
2023/10/07 10:31:34;;;;;;;11.27;2.00;;;;;;;;;;4955625;28;20418;-67
2023/10/07 10:34:08;;;;;;;13.02;1.90;;;;;;;;;;4955578;28;20539;-67
2023/10/07 10:36:43;;;;;;;11.18;1.88;;;;;;;;;;4954876;28;20475;-66
2023/10/07 10:39:18;;;;;;;15.98;2.75;;;;;;;;;;4966900;28;20030;-64
2023/10/07 10:41:44;;;;;;;9.10;1.70;;;;;;;;;;4978621;28;20022;-67
2023/10/07 10:44:12;;;;;;;9.70;2.10;;;;;;;;;;4974453;28;20530;-67
2023/10/07 10:46:45;;;;;;;9.82;2.25;;;;;;;;;;4974605;28;20027;-67
2023/10/07 10:49:12;;;;;;;11.73;2.15;;;;;;;;;;4974440;28;20495;-67
2023/10/07 10:51:46;;;;;;;8.43;1.85;;;;;;;;;;4974791;28;20022;-67
2023/10/07 10:54:19;;;;;;;13.20;2.13;;;;;;;;;;4974350;28;20082;-67
2023/10/07 10:56:58;;;;;;;9.57;1.92;;;;;;;;;;4969865;28;20046;-67
2023/10/07 10:59:43;;;;;;;13.88;2.90;;;;;;;;;;4969669;28;20113;-65
2023/10/07 11:02:17;;;;;;;11.30;1.92;;;;;;;;;;4973849;28;20457;-63
2023/10/07 11:04:55;;;;;;;16.95;3.90;;;;;;;;;;4974471;28;20023;-65
2023/10/07 11:07:24;;;;;;;11.15;2.05;;;;;;;;;;4974337;28;20038;-63
2023/10/07 11:09:51;;;;;;;10.80;2.70;;;;;;;;;;4964405;28;20539;-62
2023/10/07 11:12:18;;;;;;;10.77;3.22;;;;;;;;;;4964814;28;20061;-64
2023/10/07 11:14:47;;;;;;;14.38;3.60;;;;;;;;;;4963447;28;20031;-63
2023/10/07 11:17:15;;;;;;;10.05;3.75;;;;;;;;;;4963042;28;20031;-63
2023/10/07 11:19:51;;;;;;;14.30;3.33;;;;;;;;;;4965016;28;20026;-68
2023/10/07 11:22:20;;;;;;;10.10;3.13;;;;;;;;;;4965049;28;20037;-67
2023/10/07 11:24:49;;;;;;;13.25;3.35;;;;;;;;;;4963349;28;20039;-64
2023/10/07 11:27:15;;;;;;;10.82;2.63;;;;;;;;;;4964531;28;20484;-68
2023/10/07 11:29:42;;;;;;;12.25;2.38;;;;;;;;;;4962843;28;20031;-64
2023/10/07 11:32:08;;;;;;;11.77;2.22;;;;;;;;;;4963950;28;20094;-65
2023/10/07 11:34:38;;;;;;;15.95;2.47;;;;;;;;;;4964421;28;20461;-64
2023/10/07 11:37:11;;;;;;;;;;;;;;;;;;4973124;28;20065;-63
2023/10/07 11:39:46;;;;;;;9.60;1.67;;;;;;;;;;4983380;28;20327;-64
2023/10/07 11:42:17;;;;;;;8.43;2.70;;;;;;;;;;4973993;28;20030;-65
2023/10/07 11:44:47;;;;;;;9.30;1.88;;;;;;;;;;4973548;28;20336;-64
2023/10/07 11:47:16;;;;;;;11.73;2.05;;;;;;;;;;4973820;28;20437;-66
2023/10/07 11:49:46;;;;;;;13.05;2.13;;;;;;;;;;4973852;28;20035;-67
2023/10/07 11:52:12;;;;;;;11.50;1.77;;;;;;;;;;4972726;28;20062;-65
2023/10/07 11:54:38;;;;;;;13.63;2.22;;;;;;;;;;4973868;28;20448;-65
2023/10/07 11:57:05;;;;;;;9.85;2.20;;;;;;;;;;4972597;28;20062;-65
2023/10/07 11:59:34;;;;;;;9.55;2.40;;;;;;;;;;4973824;28;20041;-66
2023/10/07 12:02:00;;;;;;;11.95;1.92;;;;;;;;;;4973859;28;20374;-64
2023/10/07 12:04:26;;;;;;;11.88;2.25;;;;;;;;;;4973387;28;20385;-65
2023/10/07 12:06:53;;;;;;;9.90;1.83;;;;;;;;;;4973775;28;20111;-65
2023/10/07 12:09:21;;;;;;;12.25;1.88;;;;;;;;;;4973544;28;20105;-65
2023/10/07 12:11:48;;;;;;;12.15;2.90;;;;;;;;;;4973505;28;20109;-62
2023/10/07 12:14:15;;;;;;;13.48;2.60;;;;;;;;;;4973175;28;20023;-63
2023/10/07 12:16:43;;;;;;;15.63;3.42;;;;;;;;;;4973338;28;20097;-64
2023/10/07 12:19:11;;;;;;;14.23;2.22;;;;;;;;;;4972387;28;20023;-67
2023/10/07 12:21:39;;;;;;;12.80;3.42;;;;;;;;;;4972444;28;20027;-66
2023/10/07 12:24:06;;;;;;;14.45;2.50;;;;;;;;;;4973196;28;20487;-64
2023/10/07 12:26:31;;;;;;;16.48;3.15;;;;;;;;;;4973292;28;20485;-64
2023/10/07 12:28:57;;;;;;;9.50;2.72;;;;;;;;;;4990261;28;20138;-64
2023/10/07 12:31:24;;;;;;;13.30;2.72;;;;;;;;;;4992672;28;20038;-64
2023/10/07 12:33:50;;;;;;;14.55;2.70;;;;;;;;;;4991673;28;20038;-64
2023/10/07 12:36:18;;;;;;;11.38;3.30;;;;;;;;;;4992833;28;20034;-62
2023/10/07 12:38:44;;;;;;;12.80;4.22;;;;;;;;;;4992654;28;20037;-63
2023/10/07 12:41:12;;;;;;;12.82;4.93;;;;;;;;;;4981952;28;20106;-63
2023/10/07 12:43:40;;;;;;;14.20;3.85;;;;;;;;;;4973097;28;20114;-64
2023/10/07 12:46:09;;;;;;;14.05;5.20;;;;;;;;;;4973286;28;20019;-64
2023/10/07 12:48:40;;;;;;;13.63;6.43;;;;;;;;;;4973079;28;20034;-65
2023/10/07 12:51:06;;;;;;;12.43;5.68;;;;;;;;;;4973342;28;20384;-64
2023/10/07 12:53:33;;;;;;;11.65;4.60;;;;;;;;;;4973342;28;20031;-63
2023/10/07 12:56:08;;;;;;;9.40;3.28;;;;;;;;;;4973234;28;20392;-62
2023/10/07 12:58:34;;;;;;;8.95;2.40;;;;;;;;;;4973132;28;20038;-63
2023/10/07 13:01:01;;;;;;;10.88;2.67;;;;;;;;;;4976810;28;20026;-63
2023/10/07 13:03:29;;;;;;;11.35;3.35;;;;;;;;;;4976834;28;20385;-63
2023/10/07 13:05:54;;;;;;;8.60;1.98;;;;;;;;;;4976599;28;20113;-66
2023/10/07 13:08:21;;;;;;;10.02;1.63;;;;;;;;;;4976490;28;20117;-63
2023/10/07 13:10:47;;;;;;;10.68;2.38;;;;;;;;;;4976614;28;20142;-64
2023/10/07 13:13:19;;;;;;;6.53;2.33;;;;;;;;;;4976409;28;20536;-63
2023/10/07 13:15:45;;;;;;;7.72;2.05;;;;;;;;;;4976306;28;20038;-63
2023/10/07 13:18:12;;;;;;;7.72;2.60;;;;;;;;;;4976324;28;20034;-63
2023/10/07 13:20:38;;;;;;;11.63;2.80;;;;;;;;;;4976301;28;20035;-65
2023/10/07 13:23:10;;;;;;;10.15;2.05;;;;;;;;;;4976322;28;20030;-64
2023/10/07 13:25:36;;;;;;;12.93;2.10;;;;;;;;;;4976004;28;20070;-65
2023/10/07 13:28:02;;;;;;;13.65;2.28;;;;;;;;;;4975714;28;20429;-64
2023/10/07 13:30:29;;;;;;;11.63;3.03;;;;;;;;;;4976161;28;20027;-64
2023/10/07 13:32:55;;;;;;;14.43;2.90;;;;;;;;;;4976146;28;20027;-63
2023/10/07 13:35:25;;;;;;;9.32;2.25;;;;;;;;;;4976097;28;20042;-67
2023/10/07 13:37:52;;;;;;;9.85;2.20;;;;;;;;;;4975949;28;20042;-63
2023/10/07 13:40:19;;;;;;;11.20;2.47;;;;;;;;;;4986583;28;20029;-67
2023/10/07 13:42:49;;;;;;;12.18;3.50;;;;;;;;;;4975797;28;20041;-67
2023/10/07 13:45:18;;;;;;;9.70;2.72;;;;;;;;;;4975657;28;20050;-68
2023/10/07 13:47:44;;;;;;;17.35;2.85;;;;;;;;;;4975385;28;20031;-68
2023/10/07 13:50:13;;;;;;;12.45;2.50;;;;;;;;;;4975651;28;20101;-68
2023/10/07 13:52:58;;;;;;;11.70;2.63;;;;;;;;;;4975915;28;20034;-68
2023/10/07 13:58:12;;;;;;;14.63;4.03;;;;;;;;;;4975643;28;20052;-63
2023/10/07 14:00:44;;;;;;;16.67;6.00;;;;;;;;;;4975649;28;20114;-67
2023/10/07 14:03:19;;;;;;;16.45;7.57;;;;;;;;;;4975491;28;20031;-69
2023/10/07 14:05:48;;;;;;;10.93;4.25;;;;;;;;;;4975419;28;20057;-66
2023/10/07 14:08:17;;;;;;;11.13;2.63;;;;;;;;;;4975099;28;20538;-67
2023/10/07 14:10:55;;;;;;;8.93;2.63;;;;;;;;;;4974074;28;20035;-68
2023/10/07 14:13:24;;;;;;;13.15;2.35;;;;;;;;;;4975127;28;20535;-66
2023/10/07 14:15:51;;;;;;;16.48;3.22;;;;;;;;;;4975179;28;20493;-65
2023/10/07 14:18:20;;;;;;;14.38;3.47;;;;;;;;;;4975144;28;20051;-68
2023/10/07 14:21:06;;;;;;;10.80;3.45;;;;;;;;;;4975192;28;20464;-68
2023/10/07 14:23:34;;;;;;;17.23;3.80;;;;;;;;;;4975045;28;20027;-66
2023/10/07 14:26:13;;;;;;;13.57;3.55;;;;;;;;;;4974820;28;20089;-64
2023/10/07 14:28:44;;;;;;;8.65;2.60;;;;;;;;;;4975056;28;20039;-63
2023/10/07 14:31:12;;;;;;;15.43;3.38;;;;;;;;;;4975089;28;20034;-64
2023/10/07 14:33:38;;;;;;;10.20;2.80;;;;;;;;;;4975104;28;20086;-65
2023/10/07 14:36:10;;;;;;;9.75;2.25;;;;;;;;;;4974968;28;20031;-66
2023/10/07 14:38:41;;;;;;;14.98;2.88;;;;;;;;;;4976215;28;20027;-65
2023/10/07 14:41:09;;;;;;;10.57;2.42;;;;;;;;;;4983440;28;20042;-66
2023/10/07 14:43:35;;;;;;;12.85;3.38;;;;;;;;;;4974865;28;20089;-64
2023/10/07 14:46:01;;;;;;;7.75;1.70;;;;;;;;;;4974707;28;20106;-64
2023/10/07 14:48:27;;;;;;;16.17;2.70;;;;;;;;;;4974602;28;20027;-66
2023/10/07 14:50:53;;;;;;;9.20;2.38;;;;;;;;;;4974710;28;20496;-63
2023/10/07 14:53:19;;;;;;;10.07;2.83;;;;;;;;;;4974578;28;20372;-66
2023/10/07 14:55:44;;;;;;;10.00;2.28;;;;;;;;;;4974384;28;20031;-69
2023/10/07 14:58:14;;;;;;;10.75;3.17;;;;;;;;;;4973192;28;20019;-63
2023/10/07 15:00:45;;;;;;;13.27;3.33;;;;;;;;;;4974600;28;20023;-68
2023/10/07 15:03:12;;;;;;;13.00;2.80;;;;;;;;;;4974058;28;20034;-68
2023/10/07 15:05:38;;;;;;;11.65;2.67;;;;;;;;;;4974379;28;20111;-67
2023/10/07 15:08:04;;;;;;;13.98;3.28;;;;;;;;;;4974082;28;20038;-65
2023/10/07 15:10:30;;;;;;;13.13;2.03;;;;;;;;;;4973973;28;20480;-63
2023/10/07 15:12:56;;;;;;;11.32;2.72;;;;;;;;;;4974302;28;20069;-62
2023/10/07 15:15:22;;;;;;;10.13;2.58;;;;;;;;;;4974216;28;20407;-66
2023/10/07 15:17:47;;;;;;;9.65;1.92;;;;;;;;;;4974121;28;20027;-63
2023/10/07 15:20:15;;;;;;;14.88;2.90;;;;;;;;;;4973837;28;20098;-62
2023/10/07 15:22:42;;;;;;;9.15;1.90;;;;;;;;;;4973570;28;20063;-65
2023/10/07 15:25:08;;;;;;;12.77;2.40;;;;;;;;;;4973659;28;20038;-62
2023/10/07 15:27:34;;;;;;;10.00;2.30;;;;;;;;;;4973746;28;20435;-68
2023/10/07 15:30:01;;;;;;;6.10;2.65;;;;;;;;;;4974043;28;20031;-66
2023/10/07 15:32:28;;;;;;;12.70;4.93;;;;;;;;;;4974020;28;20062;-64
2023/10/07 15:34:57;;;;;;;11.10;4.10;;;;;;;;;;4974026;28;20384;-64
2023/10/07 15:37:26;;;;;;;9.82;4.97;;;;;;;;;;4973841;28;20027;-64
2023/10/07 15:39:52;;;;;;;13.00;5.25;;;;;;;;;;4984730;28;20034;-64
2023/10/07 15:42:20;;;;;;;10.25;3.72;;;;;;;;;;4974038;28;20126;-65
2023/10/07 15:44:46;;;;;;;11.18;2.35;;;;;;;;;;4973812;28;20039;-64